createdAt,value
2019-04-21T00:00:31.821Z,5.22
2019-04-21T00:01:37.644Z,5.11
2019-04-21T00:02:36.057Z,5.17
2019-04-21T00:03:38.316Z,5.04
2019-04-21T00:04:43.182Z,5.09
2019-04-21T00:05:55.275Z,5.14
2019-04-21T00:06:48.124Z,5.06
2019-04-21T00:07:54.293Z,5.02
2019-04-21T00:08:50.870Z,4.99
2019-04-21T00:09:53.745Z,5.02
2019-04-21T00:10:59.453Z,5.09
2019-04-21T00:11:48.318Z,5.05
2019-04-21T00:12:46.123Z,5.06
2019-04-21T00:13:42.562Z,4.97
2019-04-21T00:14:43.628Z,5.02
2019-04-21T00:15:40.647Z,4.91
2019-04-21T00:16:39.368Z,4.88
2019-04-21T00:17:32.063Z,4.88
2019-04-21T00:18:40.657Z,4.84
2019-04-21T00:19:33.965Z,4.79
2019-04-21T00:20:38.201Z,4.75
2019-04-21T00:21:39.584Z,4.80
2019-04-21T00:22:44.259Z,4.77
2019-04-21T00:23:49.926Z,4.72
2019-04-21T00:24:45.083Z,4.72
2019-04-21T00:25:43.476Z,4.84
2019-04-21T00:26:49.505Z,4.77
2019-04-21T00:27:46.534Z,4.72
2019-04-21T00:29:01.742Z,4.65
2019-04-21T00:29:50.378Z,4.71
2019-04-21T00:30:54.562Z,4.62
2019-04-21T00:31:45.803Z,4.68
2019-04-21T00:32:41.570Z,4.67
2019-04-21T00:33:34.297Z,4.62
2019-04-21T00:34:31.915Z,4.64
2019-04-21T00:35:35.006Z,4.64
2019-04-21T00:36:43.962Z,4.67
2019-04-21T00:37:53.429Z,4.62
2019-04-21T00:38:59.090Z,4.50
2019-04-21T00:40:00.223Z,4.43
2019-04-21T00:40:52.120Z,4.50
2019-04-21T00:41:56.217Z,4.49
2019-04-21T00:42:52.477Z,4.46
2019-04-21T00:43:44.746Z,4.50
2019-04-21T00:44:45.821Z,4.54
2019-04-21T00:45:42.229Z,4.39
2019-04-21T00:46:50.285Z,4.47
2019-04-21T00:47:52.919Z,4.36
2019-04-21T00:48:54.101Z,4.32
2019-04-21T00:49:53.906Z,4.34
2019-04-21T00:51:11.065Z,4.31
2019-04-21T00:52:08.680Z,4.25
2019-04-21T00:53:13.394Z,4.24
2019-04-21T00:53:57.931Z,4.25
2019-04-21T00:54:51.999Z,4.29
2019-04-21T00:55:52.004Z,4.18
2019-04-21T00:56:56.714Z,4.28
2019-04-21T00:58:00.380Z,4.18
2019-04-21T00:58:53.424Z,4.18
2019-04-21T00:59:55.653Z,4.13
2019-04-21T01:00:55.057Z,4.25
2019-04-21T01:01:47.718Z,4.13
2019-04-21T01:02:58.014Z,4.17
2019-04-21T01:03:52.964Z,4.13
2019-04-21T01:05:01.640Z,4.16
2019-04-21T01:05:58.889Z,4.06
2019-04-21T01:06:55.604Z,4.08
2019-04-21T01:07:56.230Z,4.10
2019-04-21T01:08:46.333Z,4.00
2019-04-21T01:09:45.281Z,4.07
2019-04-21T01:10:45.206Z,4.08
2019-04-21T01:11:49.276Z,4.04
2019-04-21T01:13:02.638Z,4.07
2019-04-21T01:14:56.907Z,3.99
2019-04-21T01:15:54.622Z,4.07
2019-04-21T01:16:52.661Z,4.08
2019-04-21T01:17:54.644Z,4.08
2019-04-21T01:18:50.562Z,3.99
2019-04-21T01:19:48.090Z,4.00
2019-04-21T01:20:30.172Z,4.10
2019-04-21T01:21:29.103Z,4.00
2019-04-21T01:22:36.049Z,4.00
2019-04-21T01:23:29.716Z,3.92
2019-04-21T01:24:34.717Z,3.98
2019-04-21T01:25:37.286Z,3.99
2019-04-21T01:26:42.764Z,3.86
2019-04-21T01:27:51.046Z,3.92
2019-04-21T01:28:54.431Z,3.81
2019-04-21T01:29:58.778Z,3.82
2019-04-21T01:30:54.819Z,3.88
2019-04-21T01:31:51.133Z,3.81
2019-04-21T01:32:57.558Z,3.82
2019-04-21T01:33:50.864Z,3.81
2019-04-21T01:34:53.007Z,3.80
2019-04-21T01:35:47.988Z,3.80
2019-04-21T01:36:46.071Z,3.80
2019-04-21T01:38:10.988Z,3.80
2019-04-21T01:38:58.331Z,3.74
2019-04-21T01:39:53.291Z,3.70
2019-04-21T01:40:54.463Z,3.70
2019-04-21T01:41:55.437Z,3.71
2019-04-21T01:42:51.400Z,3.70
2019-04-21T01:43:50.338Z,3.80
2019-04-21T01:44:53.494Z,3.70
2019-04-21T01:45:48.972Z,3.71
2019-04-21T01:46:45.737Z,3.74
2019-04-21T01:47:46.438Z,3.68
2019-04-21T01:48:45.892Z,3.62
2019-04-21T01:49:43.194Z,3.63
2019-04-21T01:50:46.810Z,3.63
2019-04-21T01:52:03.133Z,3.57
2019-04-21T01:52:57.626Z,3.59
2019-04-21T01:53:48.277Z,3.46
2019-04-21T01:54:48.213Z,3.50
2019-04-21T01:55:52.856Z,3.53
2019-04-21T01:56:44.813Z,3.54
2019-04-21T01:57:42.645Z,3.56
2019-04-21T01:58:42.794Z,3.59
2019-04-21T01:59:44.812Z,3.59
2019-04-21T02:00:46.967Z,3.57
2019-04-21T02:01:52.335Z,3.52
2019-04-21T02:02:54.645Z,3.53
2019-04-21T02:03:54.365Z,3.45
2019-04-21T02:05:00.630Z,3.44
2019-04-21T02:05:52.016Z,3.44
2019-04-21T02:06:50.512Z,3.44
2019-04-21T02:07:50.582Z,3.44
2019-04-21T02:08:50.988Z,3.53
2019-04-21T02:09:51.204Z,3.35
2019-04-21T02:10:56.024Z,3.39
2019-04-21T02:11:58.099Z,3.34
2019-04-21T02:12:50.918Z,3.33
2019-04-21T02:13:57.283Z,3.30
2019-04-21T02:15:06.361Z,3.33
2019-04-21T02:15:56.633Z,3.20
2019-04-21T02:16:54.381Z,3.28
2019-04-21T02:17:46.993Z,3.22
2019-04-21T02:18:52.978Z,3.23
2019-04-21T02:19:45.835Z,3.26
2019-04-21T02:20:40.302Z,3.23
2019-04-21T02:21:43.661Z,3.15
2019-04-21T02:23:06.064Z,3.17
2019-04-21T02:23:54.595Z,3.17
2019-04-21T02:24:58.342Z,3.22
2019-04-21T02:25:52.703Z,3.13
2019-04-21T02:26:54.300Z,3.12
2019-04-21T02:27:49.910Z,3.12
2019-04-21T02:28:55.855Z,3.16
2019-04-21T02:29:55.871Z,3.15
2019-04-21T02:31:05.984Z,3.12
2019-04-21T02:32:05.690Z,3.05
2019-04-21T02:33:19.501Z,3.13
2019-04-21T02:33:58.288Z,3.05
2019-04-21T02:36:20.691Z,3.10
2019-04-21T02:38:01.261Z,3.04
2019-04-21T02:40:15.032Z,2.97
2019-04-21T02:43:07.365Z,2.90
2019-04-21T02:45:06.692Z,2.95
2019-04-21T02:46:54.352Z,2.95
2019-04-21T02:50:52.976Z,2.76
2019-04-21T02:52:09.180Z,2.83
2019-04-21T02:53:00.813Z,2.79
2019-04-21T02:56:01.630Z,2.69
2019-04-21T02:57:01.420Z,2.65
2019-04-21T02:58:06.140Z,2.62
2019-04-21T02:59:02.275Z,2.71
2019-04-21T03:02:16.233Z,2.71
2019-04-21T03:03:09.263Z,2.62
2019-04-21T03:04:00.601Z,2.66
2019-04-21T03:05:01.847Z,2.58
2019-04-21T03:05:58.635Z,2.59
2019-04-21T03:07:09.700Z,2.62
2019-04-21T03:08:07.168Z,2.56
2019-04-21T03:08:58.749Z,2.61
2019-04-21T03:10:00.078Z,2.61
2019-04-21T03:10:59.306Z,2.56
2019-04-21T03:12:05.427Z,2.56
2019-04-21T03:14:13.659Z,2.48
2019-04-21T03:15:04.052Z,2.51
2019-04-21T03:16:11.812Z,2.53
2019-04-21T03:16:57.739Z,2.48
2019-04-21T03:18:12.954Z,2.44
2019-04-21T03:19:20.007Z,2.44
2019-04-21T03:20:03.131Z,2.48
2019-04-21T03:22:07.202Z,2.43
2019-04-21T03:25:04.470Z,2.41
2019-04-21T03:26:03.367Z,2.37
2019-04-21T03:27:12.615Z,2.40
2019-04-21T03:28:11.254Z,2.30
2019-04-21T03:30:06.508Z,2.37
2019-04-21T03:31:19.526Z,2.32
2019-04-21T03:35:37.777Z,2.37
2019-04-21T03:36:38.432Z,2.37
2019-04-21T03:38:57.024Z,2.26
2019-04-21T03:39:59.844Z,2.26
2019-04-21T03:40:57.885Z,2.25
2019-04-21T03:43:08.026Z,2.22
2019-04-21T03:43:59.189Z,2.37
2019-04-21T03:47:11.318Z,2.23
2019-04-21T03:48:01.369Z,2.23
2019-04-21T03:49:04.742Z,2.25
2019-04-21T03:50:08.860Z,2.19
2019-04-21T03:50:56.243Z,2.19
2019-04-21T03:52:02.975Z,2.14
2019-04-21T03:55:25.530Z,2.14
2019-04-21T03:56:00.639Z,2.11
2019-04-21T03:57:10.575Z,2.15
2019-04-21T04:00:09.048Z,2.15
2019-04-21T04:01:05.549Z,2.19
2019-04-21T04:02:10.743Z,2.12
2019-04-21T04:03:10.583Z,2.09
2019-04-21T04:04:06.267Z,2.15
2019-04-21T04:05:08.856Z,2.20
2019-04-21T04:07:18.741Z,2.08
2019-04-21T04:08:08.331Z,2.19
2019-04-21T04:10:04.008Z,2.22
2019-04-21T04:11:14.847Z,2.18
2019-04-21T04:11:56.478Z,2.14
2019-04-21T04:12:57.540Z,2.08
2019-04-21T04:14:54.987Z,2.08
2019-04-21T04:16:06.100Z,2.04
2019-04-21T04:17:04.800Z,2.05
2019-04-21T04:17:54.246Z,2.05
2019-04-21T04:19:54.608Z,2.08
2019-04-21T04:21:07.558Z,2.07
2019-04-21T04:22:09.162Z,2.09
2019-04-21T04:24:16.394Z,2.11
2019-04-21T04:25:11.487Z,2.02
2019-04-21T04:25:57.737Z,2.05
2019-04-21T04:27:08.102Z,2.12
2019-04-21T04:29:04.219Z,2.08
2019-04-21T04:29:59.025Z,2.08
2019-04-21T04:32:16.571Z,2.20
2019-04-21T04:32:59.346Z,2.22
2019-04-21T04:34:09.994Z,2.18
2019-04-21T04:35:03.318Z,2.18
2019-04-21T04:37:07.420Z,2.12
2019-04-21T04:37:57.298Z,2.15
2019-04-21T04:39:18.025Z,2.15
2019-04-21T04:40:05.704Z,2.19
2019-04-21T04:42:14.051Z,2.25
2019-04-21T04:42:57.009Z,2.26
2019-04-21T04:44:07.107Z,2.26
2019-04-21T04:45:08.154Z,2.41
2019-04-21T04:45:53.715Z,2.37
2019-04-21T04:47:05.414Z,2.37
2019-04-21T04:47:59.848Z,2.32
2019-04-21T04:49:01.711Z,2.25
2019-04-21T04:49:51.589Z,2.22
2019-04-21T04:54:03.856Z,2.41
2019-04-21T04:56:01.296Z,2.43
2019-04-21T04:57:59.251Z,2.44
2019-04-21T05:00:15.662Z,2.53
2019-04-21T05:01:08.685Z,2.50
2019-04-21T05:02:15.254Z,2.44
2019-04-21T05:02:55.945Z,2.48
2019-04-21T05:03:56.924Z,2.50
2019-04-21T05:05:11.335Z,2.59
2019-04-21T05:06:10.442Z,2.62
2019-04-21T05:06:56.374Z,2.66
2019-04-21T05:08:14.960Z,2.59
2019-04-21T05:09:59.684Z,2.58
2019-04-21T05:11:20.684Z,2.59
2019-04-21T05:12:52.621Z,2.61
2019-04-21T05:14:02.994Z,2.65
2019-04-21T05:15:04.509Z,2.68
2019-04-21T05:16:01.928Z,2.68
2019-04-21T05:17:17.183Z,2.76
2019-04-21T05:19:10.494Z,2.66
2019-04-21T05:20:08.621Z,2.66
2019-04-21T05:21:03.589Z,2.81
2019-04-21T05:21:55.477Z,2.79
2019-04-21T05:23:46.975Z,2.76
2019-04-21T05:24:44.253Z,2.86
2019-04-21T05:25:43.197Z,2.87
2019-04-21T05:26:44.804Z,2.97
2019-04-21T05:27:43.340Z,2.87
2019-04-21T05:28:43.843Z,2.99
2019-04-21T05:29:53.557Z,2.94
2019-04-21T05:30:50.117Z,2.97
2019-04-21T05:31:50.928Z,2.94
2019-04-21T05:32:52.603Z,3.04
2019-04-21T05:33:44.899Z,3.08
2019-04-21T05:34:50.395Z,3.07
2019-04-21T05:35:49.312Z,3.19
2019-04-21T05:36:46.035Z,3.19
2019-04-21T05:37:47.413Z,3.20
2019-04-21T05:38:43.580Z,3.12
2019-04-21T05:39:43.544Z,3.13
2019-04-21T05:40:38.975Z,3.20
2019-04-21T05:41:38.654Z,3.23
2019-04-21T05:42:41.758Z,3.22
2019-04-21T05:43:48.451Z,3.23
2019-04-21T05:45:53.530Z,3.34
2019-04-21T05:47:05.954Z,3.31
2019-04-21T05:47:55.952Z,3.34
2019-04-21T05:48:46.936Z,3.35
2019-04-21T05:49:45.238Z,3.39
2019-04-21T05:50:46.223Z,3.53
2019-04-21T05:51:44.021Z,3.42
2019-04-21T05:52:40.761Z,3.54
2019-04-21T05:53:50.567Z,3.50
2019-04-21T05:55:49.121Z,3.54
2019-04-21T05:56:51.028Z,3.70
2019-04-21T05:57:46.586Z,3.60
2019-04-21T05:58:54.079Z,3.63
2019-04-21T05:59:51.612Z,3.63
2019-04-21T06:01:06.312Z,3.74
2019-04-21T06:02:08.286Z,3.71
2019-04-21T06:02:56.312Z,3.75
2019-04-21T06:03:54.838Z,3.92
2019-04-21T06:05:05.747Z,3.86
2019-04-21T06:06:56.942Z,3.89
2019-04-21T06:07:46.162Z,3.95
2019-04-21T06:08:48.329Z,3.98
2019-04-21T06:10:00.019Z,3.99
2019-04-21T06:11:51.322Z,3.93
2019-04-21T06:12:57.888Z,4.14
2019-04-21T06:13:54.965Z,4.06
2019-04-21T06:16:03.976Z,4.11
2019-04-21T06:17:13.480Z,4.11
2019-04-21T06:17:49.271Z,4.10
2019-04-21T06:18:52.946Z,4.28
2019-04-21T06:20:54.722Z,4.38
2019-04-21T06:21:44.887Z,4.47
2019-04-21T06:22:53.205Z,5.19
2019-04-21T06:23:45.647Z,6.63
2019-04-21T06:25:16.299Z,8.50
2019-04-21T06:26:14.794Z,10.17
2019-04-21T06:27:04.952Z,11.54
2019-04-21T06:27:50.818Z,12.71
2019-04-21T06:29:02.989Z,13.91
2019-04-21T06:29:46.511Z,14.72
2019-04-21T06:30:59.296Z,15.80
2019-04-21T06:32:16.317Z,16.65
2019-04-21T06:32:49.185Z,17.15
2019-04-21T06:33:50.835Z,17.86
2019-04-21T06:35:07.180Z,18.50
2019-04-21T06:36:12.669Z,18.84
2019-04-21T06:37:05.831Z,19.20
2019-04-21T06:38:05.664Z,19.52
2019-04-21T06:39:01.760Z,20.12
2019-04-21T06:40:01.942Z,20.41
2019-04-21T06:40:48.440Z,20.69
2019-04-21T06:41:46.802Z,21.03
2019-04-21T06:42:50.224Z,21.51
2019-04-21T06:43:56.330Z,22.05
2019-04-21T06:44:57.687Z,22.48
2019-04-21T06:45:54.394Z,22.74
2019-04-21T06:46:47.066Z,22.93
2019-04-21T06:47:49.910Z,23.09
2019-04-21T06:48:55.426Z,23.59
2019-04-21T06:49:50.855Z,24.21
2019-04-21T06:50:52.525Z,24.63
2019-04-21T06:51:48.280Z,24.90
2019-04-21T06:52:57.870Z,25.14
2019-04-21T06:53:53.978Z,25.35
2019-04-21T06:54:48.227Z,25.56
2019-04-21T06:55:44.216Z,25.75
2019-04-21T06:56:51.322Z,25.71
2019-04-21T06:57:44.429Z,25.63
2019-04-21T06:58:48.173Z,25.63
2019-04-21T06:59:43.516Z,25.61
2019-04-21T07:00:41.312Z,25.59
2019-04-21T07:01:52.742Z,25.75
2019-04-21T07:03:00.085Z,25.89
2019-04-21T07:04:01.684Z,26.03
2019-04-21T07:05:08.993Z,26.46
2019-04-21T07:05:57.233Z,26.93
2019-04-21T07:06:57.406Z,27.28
2019-04-21T07:07:55.199Z,27.58
2019-04-21T07:08:56.609Z,27.86
2019-04-21T07:09:52.823Z,28.05
2019-04-21T07:10:46.308Z,28.08
2019-04-21T07:11:42.184Z,28.24
2019-04-21T07:12:45.053Z,28.32
2019-04-21T07:13:44.427Z,28.38
2019-04-21T07:14:49.720Z,28.50
2019-04-21T07:15:50.943Z,28.30
2019-04-21T07:16:50.987Z,28.20
2019-04-21T07:17:50.011Z,27.93
2019-04-21T07:18:49.782Z,27.90
2019-04-21T07:19:49.890Z,27.91
2019-04-21T07:20:51.452Z,28.13
2019-04-21T07:21:53.938Z,28.21
2019-04-21T07:22:48.053Z,28.40
2019-04-21T07:23:52.291Z,28.54
2019-04-21T07:24:54.059Z,28.55
2019-04-21T07:25:53.119Z,28.46
2019-04-21T07:26:51.584Z,28.21
2019-04-21T07:27:50.616Z,27.88
2019-04-21T07:28:57.785Z,27.38
2019-04-21T07:30:56.637Z,27.08
2019-04-21T07:31:54.375Z,27.21
2019-04-21T07:34:52.180Z,26.98
2019-04-21T07:35:49.306Z,27.01
2019-04-21T07:36:54.905Z,26.86
2019-04-21T07:37:51.010Z,27.02
2019-04-21T07:38:45.259Z,27.13
2019-04-21T07:39:43.939Z,27.68
2019-04-21T07:40:42.910Z,28.32
2019-04-21T07:41:45.091Z,28.92
2019-04-21T07:42:47.028Z,28.88
2019-04-21T07:43:41.048Z,29.15
2019-04-21T07:44:44.609Z,29.94
2019-04-21T07:45:41.919Z,30.63
2019-04-21T07:46:38.474Z,31.25
2019-04-21T07:47:47.771Z,31.47
2019-04-21T07:48:43.215Z,31.91
2019-04-21T07:49:55.234Z,32.44
2019-04-21T07:50:48.234Z,32.78
2019-04-21T07:51:53.467Z,32.56
2019-04-21T07:52:51.382Z,32.27
2019-04-21T07:53:52.627Z,32.14
2019-04-21T07:54:57.191Z,32.09
2019-04-21T07:56:32.971Z,31.69
2019-04-21T07:57:37.923Z,31.64
2019-04-21T07:58:53.828Z,31.94
2019-04-21T07:59:56.443Z,31.98
2019-04-21T08:01:43.891Z,31.79
2019-04-21T08:02:49.736Z,32.21
2019-04-21T08:03:46.593Z,32.91
2019-04-21T08:05:45.757Z,34.19
2019-04-21T08:06:46.069Z,34.33
2019-04-21T08:07:52.046Z,34.24
2019-04-21T08:08:46.677Z,34.34
2019-04-21T08:09:47.228Z,34.36
2019-04-21T08:10:44.179Z,34.38
2019-04-21T08:11:46.257Z,34.53
2019-04-21T08:12:41.943Z,34.52
2019-04-21T08:13:48.780Z,34.75
2019-04-21T08:14:43.650Z,34.90
2019-04-21T08:15:44.220Z,35.31
2019-04-21T08:16:56.024Z,35.25
2019-04-21T08:18:50.201Z,34.11
2019-04-21T08:19:43.059Z,34.18
2019-04-21T08:20:45.199Z,34.53
2019-04-21T08:21:49.675Z,34.48
2019-04-21T08:22:51.739Z,34.69
2019-04-21T08:23:41.706Z,34.95
2019-04-21T08:24:50.825Z,35.24
2019-04-21T08:25:54.282Z,35.47
2019-04-21T08:26:57.600Z,35.64
2019-04-21T08:27:54.525Z,35.83
2019-04-21T08:28:49.487Z,35.54
2019-04-21T08:29:46.246Z,35.83
2019-04-21T08:30:48.551Z,35.64
2019-04-21T08:31:56.081Z,36.03
2019-04-21T08:32:57.158Z,36.49
2019-04-21T08:33:55.997Z,36.48
2019-04-21T08:34:55.956Z,35.25
2019-04-21T08:36:16.140Z,35.40
2019-04-21T08:36:46.176Z,34.83
2019-04-21T08:37:43.408Z,35.28
2019-04-21T08:38:52.543Z,35.62
2019-04-21T08:39:57.030Z,35.18
2019-04-21T08:40:44.097Z,35.55
2019-04-21T08:41:45.285Z,36.22
2019-04-21T08:42:46.640Z,36.41
2019-04-21T08:43:44.636Z,36.34
2019-04-21T08:44:47.918Z,36.74
2019-04-21T08:45:48.151Z,36.64
2019-04-21T08:46:48.765Z,36.38
2019-04-21T08:47:45.867Z,35.93
2019-04-21T08:48:48.100Z,35.20
2019-04-21T08:49:49.051Z,35.17
2019-04-21T08:50:43.302Z,36.15
2019-04-21T08:51:52.006Z,36.69
2019-04-21T08:54:04.912Z,37.58
2019-04-21T08:54:49.671Z,37.69
2019-04-21T08:55:50.778Z,36.12
2019-04-21T08:56:46.647Z,34.40
2019-04-21T08:58:04.134Z,33.70
2019-04-21T08:58:52.912Z,33.89
2019-04-21T08:59:48.562Z,33.79
2019-04-21T09:00:58.990Z,33.60
2019-04-21T09:01:43.098Z,35.00
2019-04-21T09:02:47.325Z,35.85
2019-04-21T09:03:43.044Z,36.82
2019-04-21T09:04:41.469Z,37.85
2019-04-21T09:05:45.090Z,37.24
2019-04-21T09:07:47.552Z,37.68
2019-04-21T09:09:57.865Z,37.04
2019-04-21T09:10:39.703Z,37.09
2019-04-21T09:11:43.248Z,37.53
2019-04-21T09:12:48.037Z,36.94
2019-04-21T09:13:46.120Z,36.33
2019-04-21T09:14:41.504Z,37.09
2019-04-21T09:15:46.255Z,36.74
2019-04-21T09:16:43.301Z,36.87
2019-04-21T09:17:39.552Z,37.12
2019-04-21T09:18:38.048Z,36.68
2019-04-21T09:19:51.896Z,36.90
2019-04-21T09:20:50.874Z,37.66
2019-04-21T09:21:45.518Z,37.25
2019-04-21T09:22:41.587Z,36.53
2019-04-21T09:23:44.829Z,36.21
2019-04-21T09:24:43.817Z,36.19
2019-04-21T09:25:46.472Z,35.71
2019-04-21T09:26:44.354Z,35.46
2019-04-21T09:27:42.454Z,35.80
2019-04-21T09:28:39.506Z,36.52
2019-04-21T09:29:32.495Z,35.89
2019-04-21T09:30:26.230Z,35.39
2019-04-21T09:31:29.154Z,34.67
2019-04-21T09:32:27.637Z,34.73
2019-04-21T09:33:34.504Z,34.61
2019-04-21T09:34:43.749Z,33.89
2019-04-21T09:35:24.564Z,33.34
2019-04-21T09:36:30.121Z,33.56
2019-04-21T09:37:39.339Z,33.24
2019-04-21T09:38:32.878Z,32.90
2019-04-21T09:39:28.115Z,32.73
2019-04-21T09:40:30.105Z,32.50
2019-04-21T09:41:25.972Z,32.50
2019-04-21T09:42:36.053Z,32.28
2019-04-21T09:43:35.831Z,32.13
2019-04-21T09:44:30.896Z,31.91
2019-04-21T09:45:24.575Z,31.87
2019-04-21T09:46:25.570Z,31.64
2019-04-21T09:47:33.624Z,31.75
2019-04-21T09:48:26.257Z,31.65
2019-04-21T09:49:27.170Z,31.53
2019-04-21T09:51:18.422Z,30.79
2019-04-21T09:52:20.901Z,30.45
2019-04-21T09:53:28.460Z,29.94
2019-04-21T09:54:24.867Z,29.37
2019-04-21T09:55:22.808Z,28.24
2019-04-21T09:56:28.551Z,27.02
2019-04-21T09:57:27.444Z,26.24
2019-04-21T09:58:27.347Z,25.72
2019-04-21T09:59:27.584Z,25.17
2019-04-21T10:00:21.141Z,24.80
2019-04-21T10:01:27.158Z,24.37
2019-04-21T10:02:32.475Z,23.87
2019-04-21T10:03:19.749Z,23.74
2019-04-21T10:04:18.518Z,23.44
2019-04-21T10:05:17.100Z,23.15
2019-04-21T10:06:18.984Z,22.99
2019-04-21T10:07:26.465Z,22.84
2019-04-21T10:08:18.796Z,22.56
2019-04-21T10:09:19.764Z,22.42
2019-04-21T10:10:17.275Z,22.39
2019-04-21T10:11:19.540Z,22.33
2019-04-21T10:12:17.125Z,22.19
2019-04-21T10:13:17.167Z,22.23
2019-04-21T10:14:18.137Z,22.14
2019-04-21T10:15:16.981Z,22.23
2019-04-21T10:16:18.068Z,22.15
2019-04-21T10:17:17.257Z,22.04
2019-04-21T10:18:17.440Z,22.02
2019-04-21T10:19:19.109Z,22.08
2019-04-21T10:20:17.200Z,22.14
2019-04-21T10:21:17.382Z,22.20
2019-04-21T10:22:17.115Z,22.15
2019-04-21T10:23:17.748Z,22.12
2019-04-21T10:24:17.956Z,22.12
2019-04-21T10:25:16.966Z,22.23
2019-04-21T10:26:16.875Z,22.27
2019-04-21T10:27:17.293Z,22.24
2019-04-21T10:28:17.175Z,22.24
2019-04-21T10:29:24.300Z,22.17
2019-04-21T10:30:17.866Z,22.05
2019-04-21T10:31:16.967Z,22.09
2019-04-21T10:32:18.747Z,22.04
2019-04-21T10:33:16.909Z,22.15
2019-04-21T10:34:17.140Z,22.02
2019-04-21T10:35:20.701Z,21.91
2019-04-21T10:36:19.102Z,21.75
2019-04-21T10:37:16.797Z,21.77
2019-04-21T10:38:28.243Z,21.74
2019-04-21T10:39:17.903Z,21.79
2019-04-21T10:40:18.037Z,21.73
2019-04-21T10:41:17.273Z,21.52
2019-04-21T10:42:17.360Z,21.40
2019-04-21T10:43:20.661Z,21.40
2019-04-21T10:44:18.996Z,21.18
2019-04-21T10:45:17.079Z,21.16
2019-04-21T10:46:17.014Z,21.15
2019-04-21T10:47:16.692Z,21.18
2019-04-21T10:48:16.900Z,21.26
2019-04-21T10:49:17.068Z,21.18
2019-04-21T10:51:57.232Z,21.27
2019-04-21T10:52:56.512Z,21.27
2019-04-21T10:53:57.932Z,21.06
2019-04-21T10:55:23.097Z,21.11
2019-04-21T10:56:11.529Z,21.12
2019-04-21T10:56:58.591Z,21.09
2019-04-21T10:57:56.438Z,21.06
2019-04-21T10:58:58.381Z,21.03
2019-04-21T10:59:58.219Z,20.98
2019-04-21T11:00:57.843Z,20.97
2019-04-21T11:01:56.834Z,20.91
2019-04-21T11:02:56.920Z,20.64
2019-04-21T11:03:56.382Z,20.63
2019-04-21T11:04:56.665Z,20.78
2019-04-21T11:05:56.682Z,20.76
2019-04-21T11:07:04.238Z,20.79
2019-04-21T11:08:08.925Z,20.63
2019-04-21T11:08:59.198Z,20.71
2019-04-21T11:09:58.081Z,20.73
2019-04-21T11:10:56.277Z,20.81
2019-04-21T11:11:57.733Z,20.82
2019-04-21T11:12:56.808Z,20.82
2019-04-21T11:13:56.812Z,20.75
2019-04-21T11:14:57.308Z,20.81
2019-04-21T11:15:57.111Z,20.79
2019-04-21T11:16:58.249Z,20.87
2019-04-21T11:17:56.202Z,20.83
2019-04-21T11:18:56.311Z,20.83
2019-04-21T11:19:57.002Z,20.82
2019-04-21T11:20:56.183Z,20.79
2019-04-21T11:21:56.890Z,20.78
2019-04-21T11:22:57.451Z,20.79
2019-04-21T11:23:56.568Z,20.75
2019-04-21T11:24:56.699Z,20.60
2019-04-21T11:25:56.127Z,20.79
2019-04-21T11:26:56.106Z,20.82
2019-04-21T11:27:56.096Z,20.90
2019-04-21T11:28:56.820Z,20.93
2019-04-21T11:29:56.067Z,20.87
2019-04-21T11:30:57.174Z,20.88
2019-04-21T11:31:56.935Z,20.93
2019-04-21T11:32:57.177Z,21.08
2019-04-21T11:33:57.419Z,21.03
2019-04-21T11:34:57.115Z,21.13
2019-04-21T11:35:57.322Z,21.06
2019-04-21T11:36:58.474Z,21.01
2019-04-21T11:38:06.074Z,21.03
2019-04-21T11:39:11.017Z,21.00
2019-04-21T11:40:03.356Z,21.05
2019-04-21T11:40:58.121Z,20.97
2019-04-21T11:41:57.456Z,20.93
2019-04-21T11:42:57.654Z,20.90
2019-04-21T11:43:57.165Z,20.83
2019-04-21T11:44:55.899Z,20.87
2019-04-21T11:45:58.204Z,20.88
2019-04-21T11:46:56.358Z,20.91
2019-04-21T11:48:04.065Z,20.96
2019-04-21T11:48:55.940Z,20.90
2019-04-21T11:49:57.055Z,20.93
2019-04-21T11:50:57.137Z,20.91
2019-04-21T11:51:56.547Z,20.90
2019-04-21T11:52:56.903Z,20.96
2019-04-21T11:53:56.918Z,20.98
2019-04-21T11:54:55.797Z,20.90
2019-04-21T11:55:56.998Z,20.93
2019-04-21T11:56:56.943Z,20.93
2019-04-21T11:57:56.588Z,20.94
2019-04-21T11:58:55.767Z,20.87
2019-04-21T11:59:55.719Z,20.98
2019-04-21T12:00:55.843Z,21.01
2019-04-21T12:01:55.789Z,20.97
2019-04-21T12:02:55.748Z,20.96
2019-04-21T12:03:55.775Z,20.97
2019-04-21T12:04:55.680Z,21.03
2019-04-21T12:05:55.672Z,21.08
2019-04-21T12:06:56.069Z,21.05
2019-04-21T12:07:58.400Z,21.05
2019-04-21T12:08:59.334Z,21.09
2019-04-21T12:09:57.537Z,21.11
2019-04-21T12:10:55.704Z,21.18
2019-04-21T12:11:56.920Z,21.18
2019-04-21T12:12:55.635Z,21.19
2019-04-21T12:13:56.290Z,21.24
2019-04-21T12:14:55.628Z,21.24
2019-04-21T12:15:57.033Z,21.24
2019-04-21T12:16:57.202Z,21.26
2019-04-21T12:17:56.445Z,21.24
2019-04-21T12:18:56.815Z,21.19
2019-04-21T12:19:56.927Z,21.16
2019-04-21T12:20:55.726Z,21.16
2019-04-21T12:22:05.110Z,21.12
2019-04-21T12:22:56.979Z,21.18
2019-04-21T12:23:56.619Z,21.15
2019-04-21T12:24:55.551Z,21.09
2019-04-21T12:25:56.831Z,21.18
2019-04-21T12:26:55.986Z,21.18
2019-04-21T12:27:58.174Z,21.13
2019-04-21T12:28:55.821Z,21.18
2019-04-21T12:29:57.616Z,21.24
2019-04-21T12:30:55.953Z,21.27
2019-04-21T12:31:55.388Z,21.26
2019-04-21T12:32:56.066Z,21.42
2019-04-21T12:33:56.162Z,21.37
2019-04-21T12:34:55.409Z,21.43
2019-04-21T12:35:55.648Z,21.52
2019-04-21T12:36:55.309Z,21.49
2019-04-21T12:37:56.405Z,21.56
2019-04-21T12:38:59.315Z,21.67
2019-04-21T12:39:56.843Z,21.70
2019-04-21T12:40:55.273Z,21.75
2019-04-21T12:41:56.375Z,21.71
2019-04-21T12:42:56.703Z,21.73
2019-04-21T12:43:55.345Z,21.70
2019-04-21T12:44:55.268Z,21.66
2019-04-21T12:45:58.048Z,21.81
2019-04-21T12:46:58.125Z,21.82
2019-04-21T12:47:55.738Z,21.82
2019-04-21T12:48:56.207Z,21.74
2019-04-21T12:49:55.199Z,21.74
2019-04-21T12:50:55.219Z,21.77
2019-04-21T12:51:55.531Z,21.74
2019-04-21T12:52:55.851Z,21.77
2019-04-21T12:54:01.891Z,21.63
2019-04-21T12:54:55.579Z,21.81
2019-04-21T12:55:56.191Z,21.73
2019-04-21T12:56:55.799Z,21.75
2019-04-21T12:57:55.254Z,21.67
2019-04-21T12:58:55.394Z,21.63
2019-04-21T12:59:58.355Z,21.68
2019-04-21T13:00:55.045Z,21.63
2019-04-21T13:01:56.947Z,21.66
2019-04-21T13:02:56.039Z,21.55
2019-04-21T13:03:56.037Z,21.61
2019-04-21T13:04:55.869Z,21.56
2019-04-21T13:05:58.032Z,21.58
2019-04-21T13:06:55.270Z,21.55
2019-04-21T13:07:57.469Z,21.58
2019-04-21T13:09:01.479Z,21.63
2019-04-21T13:09:55.981Z,21.56
2019-04-21T13:10:56.114Z,21.58
2019-04-21T13:11:55.178Z,21.61
2019-04-21T13:12:56.205Z,21.64
2019-04-21T13:13:55.737Z,21.52
2019-04-21T13:14:57.463Z,21.58
2019-04-21T13:15:55.956Z,21.48
2019-04-21T13:16:55.173Z,21.45
2019-04-21T13:17:58.382Z,21.31
2019-04-21T13:18:55.376Z,21.36
2019-04-21T13:19:54.946Z,21.27
2019-04-21T13:20:55.951Z,21.26
2019-04-21T13:21:56.116Z,21.31
2019-04-21T13:22:54.800Z,21.38
2019-04-21T13:23:56.899Z,21.40
2019-04-21T13:24:55.828Z,21.37
2019-04-21T13:25:55.999Z,21.49
2019-04-21T13:26:58.434Z,21.58
2019-04-21T13:27:56.792Z,21.66
2019-04-21T13:28:54.755Z,21.64
2019-04-21T13:29:54.754Z,21.66
2019-04-21T13:30:55.983Z,21.52
2019-04-21T13:31:56.172Z,21.61
2019-04-21T13:32:55.514Z,21.74
2019-04-21T13:33:57.894Z,21.58
2019-04-21T13:34:54.977Z,21.56
2019-04-21T13:35:55.151Z,21.53
2019-04-21T13:36:54.674Z,21.52
2019-04-21T13:37:54.733Z,21.48
2019-04-21T13:39:24.943Z,21.34
2019-04-21T13:40:21.132Z,21.40
2019-04-21T13:41:12.219Z,21.36
2019-04-21T13:42:06.538Z,21.36
2019-04-21T13:43:00.733Z,21.43
2019-04-21T13:43:56.736Z,21.46
2019-04-21T13:44:56.243Z,21.49
2019-04-21T13:45:54.608Z,21.51
2019-04-21T13:46:54.714Z,21.55
2019-04-21T13:47:54.771Z,21.53
2019-04-21T13:48:54.844Z,21.53
2019-04-21T13:49:57.394Z,21.56
2019-04-21T13:50:55.289Z,21.55
2019-04-21T13:51:54.513Z,21.51
2019-04-21T13:52:54.577Z,21.58
2019-04-21T13:53:55.515Z,21.58
2019-04-21T13:54:55.810Z,21.63
2019-04-21T13:55:54.469Z,21.63
2019-04-21T13:56:54.526Z,21.61
2019-04-21T13:57:54.615Z,21.70
2019-04-21T13:58:55.672Z,21.56
2019-04-21T13:59:55.099Z,21.58
2019-04-21T14:00:55.980Z,21.55
2019-04-21T14:01:54.363Z,21.59
2019-04-21T14:02:54.643Z,21.53
2019-04-21T14:03:55.504Z,21.46
2019-04-21T14:04:55.646Z,21.49
2019-04-21T14:05:56.215Z,21.45
2019-04-21T14:06:54.317Z,21.33
2019-04-21T14:09:15.603Z,21.28
2019-04-21T14:10:15.893Z,21.33
2019-04-21T14:11:15.486Z,21.30
2019-04-21T14:12:14.116Z,21.30
2019-04-21T14:13:22.303Z,21.13
2019-04-21T14:14:14.416Z,21.06